地図

経路データ

SID SEASON NUMBER BASIN SUBBASIN NAME ISO_TIME NATURE LAT LON WMO_WIND WMO_PRES WMO_AGENCY TRACK_TYPE DIST2LAND LANDFALL IFLAG USA_AGENCY USA_ATCF_ID USA_LAT USA_LON USA_RECORD USA_STATUS USA_WIND USA_PRES USA_SSHS USA_R34_NE USA_R34_SE USA_R34_SW USA_R34_NW USA_R50_NE USA_R50_SE USA_R50_SW USA_R50_NW USA_R64_NE USA_R64_SE USA_R64_SW USA_R64_NW USA_POCI USA_ROCI USA_RMW USA_EYE TOKYO_LAT TOKYO_LON TOKYO_GRADE TOKYO_WIND TOKYO_PRES TOKYO_R50_DIR TOKYO_R50_LONG TOKYO_R50_SHORT TOKYO_R30_DIR TOKYO_R30_LONG TOKYO_R30_SHORT TOKYO_LAND CMA_LAT CMA_LON CMA_CAT CMA_WIND CMA_PRES HKO_LAT HKO_LON HKO_CAT HKO_WIND HKO_PRES NEWDELHI_LAT NEWDELHI_LON NEWDELHI_GRADE NEWDELHI_WIND NEWDELHI_PRES NEWDELHI_CI NEWDELHI_DP NEWDELHI_POCI REUNION_LAT REUNION_LON REUNION_TYPE REUNION_WIND REUNION_PRES REUNION_TNUM REUNION_CI REUNION_RMW REUNION_R34_NE REUNION_R34_SE REUNION_R34_SW REUNION_R34_NW REUNION_R50_NE REUNION_R50_SE REUNION_R50_SW REUNION_R50_NW REUNION_R64_NE REUNION_R64_SE REUNION_R64_SW REUNION_R64_NW BOM_LAT BOM_LON BOM_TYPE BOM_WIND BOM_PRES BOM_TNUM BOM_CI BOM_RMW BOM_R34_NE BOM_R34_SE BOM_R34_SW BOM_R34_NW BOM_R50_NE BOM_R50_SE BOM_R50_SW BOM_R50_NW BOM_R64_NE BOM_R64_SE BOM_R64_SW BOM_R64_NW BOM_ROCI BOM_POCI BOM_EYE BOM_POS_METHOD BOM_PRES_METHOD NADI_LAT NADI_LON NADI_CAT NADI_WIND NADI_PRES WELLINGTON_LAT WELLINGTON_LON WELLINGTON_WIND WELLINGTON_PRES DS824_LAT DS824_LON DS824_STAGE DS824_WIND DS824_PRES TD9636_LAT TD9636_LON TD9636_STAGE TD9636_WIND TD9636_PRES TD9635_LAT TD9635_LON TD9635_WIND TD9635_PRES TD9635_ROCI NEUMANN_LAT NEUMANN_LON NEUMANN_CLASS NEUMANN_WIND NEUMANN_PRES MLC_LAT MLC_LON MLC_CLASS MLC_WIND MLC_PRES USA_GUST BOM_GUST BOM_GUST_PER REUNION_GUST REUNION_GUST_PER USA_SEAHGT USA_SEARAD_NE USA_SEARAD_SE USA_SEARAD_SW USA_SEARAD_NW STORM_SPEED STORM_DIR
1970209N33284 1970 74 NA NA NOT_NAMED 1970-07-27 12:00:00 TS 33.0000 -76.5000 20 hurdat_atl main 171 164 O_____________ hurdat_atl AL031970 33.0000 -76.5000 TD 20 -1 6 29
1970209N33284 1970 74 NA NA NOT_NAMED 1970-07-27 15:00:00 TS 33.2501 -76.3378 main 157 136 P_____________ AL031970 33.2501 -76.3378 TD 22 -1 6 27
1970209N33284 1970 74 NA NA NOT_NAMED 1970-07-27 18:00:00 TS 33.5000 -76.2000 25 hurdat_atl main 136 117 O_____________ hurdat_atl AL031970 33.5000 -76.2000 TD 25 -1 5 22
1970209N33284 1970 74 NA NA NOT_NAMED 1970-07-27 21:00:00 TS 33.7499 -76.0998 main 117 90 P_____________ AL031970 33.7499 -76.0998 TD 25 -1 5 19
1970209N33284 1970 74 NA NA NOT_NAMED 1970-07-28 00:00:00 TS 34.0000 -76.0000 25 hurdat_atl main 90 78 O_____________ hurdat_atl AL031970 34.0000 -76.0000 TD 25 -1 5 22
1970209N33284 1970 74 NA NA NOT_NAMED 1970-07-28 03:00:00 TS 34.2500 -75.8500 main 70 70 P_____________ AL031970 34.2500 -75.8500 TD 25 -1 6 26
1970209N33284 1970 74 NA NA NOT_NAMED 1970-07-28 06:00:00 TS 34.5000 -75.7000 25 hurdat_atl main 70 55 O_____________ hurdat_atl AL031970 34.5000 -75.7000 TD 25 -1 6 17
1970209N33284 1970 74 NA NA NOT_NAMED 1970-07-28 09:00:00 TS 34.8021 -75.6525 main 55 55 P_____________ AL031970 34.8021 -75.6525 TD 25 -1 5 18
1970209N33284 1970 74 NA NA NOT_NAMED 1970-07-28 12:00:00 TS 35.0000 -75.5000 25 hurdat_atl main 69 69 O_____________ hurdat_atl AL031970 35.0000 -75.5000 TD 25 -1 5 74
1970209N33284 1970 74 NA NA NOT_NAMED 1970-07-28 15:00:00 TS 34.9453 -75.0593 main 95 95 P_____________ AL031970 34.9453 -75.0593 TD 25 -1 8 104
1970209N33284 1970 74 NA NA NOT_NAMED 1970-07-28 18:00:00 TS 34.8000 -74.5000 25 hurdat_atl main 140 140 O_____________ hurdat_atl AL031970 34.8000 -74.5000 TD 25 -1 9 103
1970209N33284 1970 74 NA NA NOT_NAMED 1970-07-28 21:00:00 TS 34.7423 -74.0002 main 183 183 P_____________ AL031970 34.7423 -74.0002 TD 25 -1 8 97
1970209N33284 1970 74 NA NA NOT_NAMED 1970-07-29 00:00:00 TS 34.7000 -73.5000 25 hurdat_atl main 218 218 O_____________ hurdat_atl AL031970 34.7000 -73.5000 TD 25 -1 8 96
1970209N33284 1970 74 NA NA NOT_NAMED 1970-07-29 03:00:00 TS 34.6498 -73.0001 main 263 263 P_____________ AL031970 34.6498 -73.0001 TD 25 -1 8 97
1970209N33284 1970 74 NA NA NOT_NAMED 1970-07-29 06:00:00 TS 34.6000 -72.5000 25 hurdat_atl main 303 303 O_____________ hurdat_atl AL031970 34.6000 -72.5000 TD 25 -1 7 95
1970209N33284 1970 74 NA NA NOT_NAMED 1970-07-29 09:00:00 TS 34.5855 -72.0989 main 335 335 P_____________ AL031970 34.5855 -72.0989 TD 25 -1 8 97
1970209N33284 1970 74 NA NA NOT_NAMED 1970-07-29 12:00:00 TS 34.5000 -71.5000 25 hurdat_atl main 390 390 O_____________ hurdat_atl AL031970 34.5000 -71.5000 TD 25 -1 14 104
1970209N33284 1970 74 NA NA NOT_NAMED 1970-07-29 15:00:00 TS 34.2463 -70.4389 main 496 496 P_____________ AL031970 34.2463 -70.4389 TD 22 -1 20 108
1970209N33284 1970 74 NA NA NOT_NAMED 1970-07-29 18:00:00 TS 33.9000 -69.2000 20 hurdat_atl main 611 611 O_____________ hurdat_atl AL031970 33.9000 -69.2000 TD 20 -1 21 110
1970209N33284 1970 74 NA NA NOT_NAMED 1970-07-29 21:00:00 TS 33.5486 -68.1005 main 722 722 P_____________ AL031970 33.5486 -68.1005 TD 20 -1 20 111
1970209N33284 1970 74 NA NA NOT_NAMED 1970-07-30 00:00:00 TS 33.2000 -67.0000 20 hurdat_atl main 829 829 O_____________ hurdat_atl AL031970 33.2000 -67.0000 TD 20 -1 20 109
1970209N33284 1970 74 NA NA NOT_NAMED 1970-07-30 03:00:00 TS 32.8919 -65.8509 main 936 936 P_____________ AL031970 32.8919 -65.8509 TD 20 -1 20 107
1970209N33284 1970 74 NA NA NOT_NAMED 1970-07-30 06:00:00 TS 32.6000 -64.7000 20 hurdat_atl main 1052 1052 O_____________ hurdat_atl AL031970 32.6000 -64.7000 TD 20 -1 21 109
1970209N33284 1970 74 NA NA NOT_NAMED 1970-07-30 09:00:00 TS 32.2030 -63.5153 main 1173 1173 P_____________ AL031970 32.2030 -63.5153 TD 20 -1 20 108
1970209N33284 1970 74 NA NA NOT_NAMED 1970-07-30 12:00:00 TS 32.0000 -62.5000 20 hurdat_atl main 1267 1267 O_____________ hurdat_atl AL031970 32.0000 -62.5000 TD 20 -1 14 88
1970209N33284 1970 74 NA NA NOT_NAMED 1970-07-30 15:00:00 TS 32.2435 -61.8193 main 1282 1251 P_____________ AL031970 32.2435 -61.8193 TD 22 -1 12 55
1970209N33284 1970 74 NA NA NOT_NAMED 1970-07-30 18:00:00 TS 32.7000 -61.3000 25 hurdat_atl main 1251 1221 O_____________ hurdat_atl AL031970 32.7000 -61.3000 TD 25 -1 12 47
1970209N33284 1970 74 NA NA NOT_NAMED 1970-07-30 21:00:00 TS 33.0997 -60.7422 main 1224 1194 P_____________ AL031970 33.0997 -60.7422 TD 25 -1 12 49
1970209N33284 1970 74 NA NA NOT_NAMED 1970-07-31 00:00:00 TS 33.5000 -60.2000 25 hurdat_atl main 1197 1179 O_____________ hurdat_atl AL031970 33.5000 -60.2000 TD 25 -1 12 51
1970209N33284 1970 74 NA NA NOT_NAMED 1970-07-31 03:00:00 TS 33.8498 -59.6493 main 1186 1160 P_____________ AL031970 33.8498 -59.6493 TD 25 -1 12 53
1970209N33284 1970 74 NA NA NOT_NAMED 1970-07-31 06:00:00 TS 34.2000 -59.1000 25 hurdat_atl main 1164 1151 O_____________ hurdat_atl AL031970 34.2000 -59.1000 TD 25 -1 12 53
1970209N33284 1970 74 NA NA NOT_NAMED 1970-07-31 09:00:00 TS 34.5629 -58.4902 main 1149 1133 P_____________ AL031970 34.5629 -58.4902 TD 25 -1 12 49
1970209N33284 1970 74 NA NA NOT_NAMED 1970-07-31 12:00:00 TS 35.0000 -58.0000 25 hurdat_atl main 1133 1096 O_____________ hurdat_atl AL031970 35.0000 -58.0000 TD 25 -1 12 30
1970209N33284 1970 74 NA NA NOT_NAMED 1970-07-31 15:00:00 TS 35.5620 -57.7962 main 1087 1037 P_____________ AL031970 35.5620 -57.7962 TD 25 -1 12 12
1970209N33284 1970 74 NA NA NOT_NAMED 1970-07-31 18:00:00 TS 36.2000 -57.7000 25 hurdat_atl main 1037 981 O_____________ hurdat_atl AL031970 36.2000 -57.7000 TD 25 -1 13 10
1970209N33284 1970 74 NA NA NOT_NAMED 1970-07-31 21:00:00 TS 36.8350 -57.5073 main 981 912 P_____________ AL031970 36.8350 -57.5073 TD 25 -1 13 14
1970209N33284 1970 74 NA NA NOT_NAMED 1970-08-01 00:00:00 TS 37.5000 -57.3000 25 hurdat_atl main 912 845 O_____________ hurdat_atl AL031970 37.5000 -57.3000 TD 25 -1 14 13
1970209N33284 1970 74 NA NA NOT_NAMED 1970-08-01 03:00:00 TS 38.2150 -57.0999 main 845 781 P_____________ AL031970 38.2150 -57.0999 TD 25 -1 14 13
1970209N33284 1970 74 NA NA NOT_NAMED 1970-08-01 06:00:00 TS 38.9000 -56.9000 25 hurdat_atl main 781 738 O_____________ hurdat_atl AL031970 38.9000 -56.9000 TD 25 -1 12 14
1970209N33284 1970 74 NA NA NOT_NAMED 1970-08-01 09:00:00 TS 39.4049 -56.7061 main 738 689 P_____________ AL031970 39.4049 -56.7061 TD 22 -1 11 16
1970209N33284 1970 74 NA NA NOT_NAMED 1970-08-01 12:00:00 TS 40.0000 -56.5000 20 hurdat_atl main 689 624 O_____________ hurdat_atl AL031970 40.0000 -56.5000 TD 20 -1 15 13
1970209N33284 1970 74 NA NA NOT_NAMED 1970-08-01 15:00:00 TS 40.9027 -56.2625 main 615 541 P_____________ AL031970 40.9027 -56.2625 TD 20 -1 20 11
1970209N33284 1970 74 NA NA NOT_NAMED 1970-08-01 18:00:00 TS 42.0000 -56.0000 20 hurdat_atl main 532 O_____________ hurdat_atl AL031970 42.0000 -56.0000 TD 20 -1 22 10

IBTrACS Databaseについて

本データベースは、米国NOAAが公開する1842年以降の世界の熱帯低気圧のベストトラックデータアーカイブInternational Best Track Archive for Climate Stewardship (IBTrACS)を、ウェブで閲覧しやすい形式に変換したものです。

最終更新日:2021-12-01